createdAt,value
2022-09-07T00:01:00.571Z,91.16
2022-09-07T00:03:27.433Z,91.44
2022-09-07T00:05:54.176Z,91.64
2022-09-07T00:08:23.260Z,91.47
2022-09-07T00:10:58.272Z,91.42
2022-09-07T00:13:26.782Z,91.57
2022-09-07T00:15:53.369Z,91.71
2022-09-07T00:18:20.013Z,92.73
2022-09-07T00:20:46.563Z,93.24
2022-09-07T00:23:13.276Z,94.00
2022-09-07T00:25:40.288Z,94.72
2022-09-07T00:28:08.585Z,95.09
2022-09-07T00:30:41.928Z,95.39
2022-09-07T00:33:09.126Z,95.06
2022-09-07T00:35:42.034Z,94.80
2022-09-07T00:38:09.300Z,95.49
2022-09-07T00:40:35.906Z,95.65
2022-09-07T00:43:02.483Z,96.17
2022-09-07T00:45:29.429Z,96.92
2022-09-07T00:48:07.482Z,96.60
2022-09-07T00:50:42.975Z,96.84
2022-09-07T00:53:15.835Z,96.81
2022-09-07T00:55:45.569Z,97.26
2022-09-07T00:58:13.419Z,98.20
2022-09-07T01:00:41.830Z,98.22
2022-09-07T01:03:10.900Z,99.32
2022-09-07T01:05:51.736Z,99.02
2022-09-07T01:08:18.505Z,99.62
2022-09-07T01:10:46.733Z,99.47
2022-09-07T01:13:15.049Z,99.61
2022-09-07T01:16:05.550Z,100.00
2022-09-07T01:18:53.342Z,99.81
2022-09-07T01:21:27.068Z,100.00
2022-09-07T01:24:11.520Z,100.00
2022-09-07T01:27:18.482Z,100.00
2022-09-07T01:30:03.480Z,100.00
2022-09-07T01:32:36.142Z,100.00
2022-09-07T01:35:12.016Z,100.00
2022-09-07T01:37:49.140Z,100.00
2022-09-07T01:40:22.535Z,100.00
2022-09-07T01:43:02.340Z,100.00
2022-09-07T01:45:34.807Z,100.00
2022-09-07T01:48:05.904Z,100.00
2022-09-07T01:50:45.680Z,100.00
2022-09-07T01:53:23.355Z,100.00
2022-09-07T01:56:01.799Z,100.00
2022-09-07T01:58:46.020Z,100.00
2022-09-07T02:01:18.861Z,100.00
2022-09-07T02:03:55.151Z,100.00
2022-09-07T02:06:36.460Z,100.00
2022-09-07T02:09:09.837Z,100.00
2022-09-07T02:11:40.640Z,100.00
2022-09-07T02:14:14.324Z,100.00
2022-09-07T02:16:49.651Z,100.00
2022-09-07T02:19:19.150Z,100.00
2022-09-07T02:21:53.271Z,100.00
2022-09-07T02:24:26.145Z,100.00
2022-09-07T02:26:54.400Z,100.00
2022-09-07T02:29:21.159Z,100.00
2022-09-07T02:31:48.124Z,100.00
2022-09-07T02:34:14.668Z,100.00
2022-09-07T02:36:45.780Z,100.00
2022-09-07T02:39:12.796Z,100.00
2022-09-07T02:41:41.969Z,100.00
2022-09-07T02:44:21.308Z,100.00
2022-09-07T02:47:06.081Z,100.00
2022-09-07T02:49:46.211Z,100.00
2022-09-07T02:52:24.668Z,100.00
2022-09-07T02:55:09.177Z,100.00
2022-09-07T02:57:53.344Z,100.00
2022-09-07T03:00:26.007Z,100.00
2022-09-07T03:03:12.605Z,100.00
2022-09-07T03:05:39.003Z,100.00
2022-09-07T03:08:18.143Z,100.00
2022-09-07T03:10:45.390Z,100.00
2022-09-07T03:13:27.010Z,100.00
2022-09-07T03:15:56.243Z,100.00
2022-09-07T03:18:24.643Z,100.00
2022-09-07T03:20:51.412Z,100.00
2022-09-07T03:23:18.062Z,100.00
2022-09-07T03:25:44.635Z,100.00
2022-09-07T03:28:11.479Z,100.00
2022-09-07T03:30:41.946Z,100.00
2022-09-07T03:33:08.452Z,100.00
2022-09-07T03:35:35.518Z,100.00
2022-09-07T03:38:02.077Z,100.00
2022-09-07T03:40:28.832Z,100.00
2022-09-07T03:42:55.319Z,100.00
2022-09-07T03:45:21.663Z,100.00
2022-09-07T03:47:49.123Z,100.00
2022-09-07T03:50:15.651Z,100.00
2022-09-07T03:52:42.229Z,100.00
2022-09-07T03:55:09.023Z,100.00
2022-09-07T03:57:36.084Z,100.00
2022-09-07T04:00:04.855Z,100.00
2022-09-07T04:02:39.076Z,100.00
2022-09-07T04:05:05.834Z,100.00
2022-09-07T04:07:32.309Z,100.00
2022-09-07T04:09:58.791Z,100.00
2022-09-07T04:12:26.016Z,100.00
2022-09-07T04:14:52.530Z,100.00
2022-09-07T04:17:18.913Z,100.00
2022-09-07T04:19:45.395Z,100.00
2022-09-07T04:22:11.746Z,100.00
2022-09-07T04:24:38.219Z,100.00
2022-09-07T04:27:04.568Z,100.00
2022-09-07T04:29:31.130Z,100.00
2022-09-07T04:31:57.483Z,100.00
2022-09-07T04:34:24.084Z,100.00
2022-09-07T04:36:50.547Z,100.00
2022-09-07T04:39:17.129Z,100.00
2022-09-07T04:41:43.736Z,100.00
2022-09-07T04:44:14.806Z,100.00
2022-09-07T04:46:43.181Z,100.00
2022-09-07T04:49:10.663Z,100.00
2022-09-07T04:51:38.583Z,100.00
2022-09-07T04:54:05.427Z,100.00
2022-09-07T04:56:32.708Z,100.00
2022-09-07T04:59:01.262Z,100.00
2022-09-07T05:01:32.193Z,100.00
2022-09-07T05:04:01.137Z,100.00
2022-09-07T05:06:27.643Z,100.00
2022-09-07T05:08:55.015Z,100.00
2022-09-07T05:11:28.412Z,100.00
2022-09-07T05:14:00.876Z,100.00
2022-09-07T05:16:28.414Z,100.00
2022-09-07T05:19:01.223Z,100.00
2022-09-07T05:21:29.936Z,100.00
2022-09-07T05:23:57.737Z,100.00
2022-09-07T05:26:27.131Z,100.00
2022-09-07T05:31:40.739Z,100.00
2022-09-07T05:36:56.417Z,100.00
2022-09-07T05:39:23.175Z,100.00
2022-09-07T05:41:49.788Z,100.00
2022-09-07T05:47:02.776Z,100.00
2022-09-07T05:49:30.348Z,100.00
2022-09-07T05:51:56.827Z,100.00
2022-09-07T05:54:23.183Z,100.00
2022-09-07T05:56:49.647Z,100.00
2022-09-07T05:59:15.995Z,100.00
2022-09-07T06:01:42.498Z,100.00
2022-09-07T06:04:09.007Z,100.00
2022-09-07T06:06:38.249Z,100.00
2022-09-07T06:09:04.739Z,100.00
2022-09-07T06:11:31.227Z,100.00
2022-09-07T06:13:57.697Z,100.00
2022-09-07T06:16:24.331Z,100.00
2022-09-07T06:18:50.995Z,100.00
2022-09-07T06:21:19.622Z,100.00
2022-09-07T06:23:47.727Z,100.00
2022-09-07T06:26:16.324Z,100.00
2022-09-07T06:28:51.378Z,100.00
2022-09-07T06:31:21.577Z,100.00
2022-09-07T06:33:48.852Z,100.00
2022-09-07T06:36:17.784Z,100.00
2022-09-07T06:38:45.260Z,100.00
2022-09-07T06:44:06.739Z,100.00
2022-09-07T06:49:19.852Z,100.00
2022-09-07T06:51:46.362Z,100.00
2022-09-07T06:56:59.309Z,100.00
2022-09-07T06:59:25.785Z,100.00
2022-09-07T07:01:52.257Z,97.76
2022-09-07T07:04:18.718Z,93.14
2022-09-07T07:06:45.178Z,91.87
2022-09-07T07:09:13.064Z,92.44
2022-09-07T07:11:39.632Z,89.76
2022-09-07T07:14:06.128Z,89.58
2022-09-07T07:16:32.850Z,85.27
2022-09-07T07:18:59.452Z,84.57
2022-09-07T07:21:27.175Z,81.17
2022-09-07T07:23:55.372Z,78.65
2022-09-07T07:26:26.689Z,78.34
2022-09-07T07:31:26.937Z,74.28
2022-09-07T07:33:53.858Z,70.67
2022-09-07T07:36:22.919Z,66.02
2022-09-07T07:44:17.408Z,62.01
2022-09-07T07:46:47.509Z,64.30
2022-09-07T07:49:13.983Z,66.46
2022-09-07T07:54:26.800Z,68.25
2022-09-07T07:56:53.206Z,69.14
2022-09-07T07:59:19.654Z,69.24
2022-09-07T08:01:46.181Z,66.54
2022-09-07T08:04:12.735Z,68.08
2022-09-07T08:06:42.527Z,68.84
2022-09-07T08:09:09.121Z,66.01
2022-09-07T08:11:35.542Z,63.97
2022-09-07T08:14:05.833Z,59.93
2022-09-07T08:16:32.995Z,58.25
2022-09-07T08:18:59.559Z,56.36
2022-09-07T08:21:25.979Z,56.74
2022-09-07T08:23:52.328Z,55.28
2022-09-07T08:26:18.714Z,54.44
2022-09-07T08:28:46.169Z,54.14
2022-09-07T08:31:15.754Z,54.00
2022-09-07T08:33:42.791Z,56.46
2022-09-07T08:36:19.794Z,54.99
2022-09-07T08:38:47.308Z,50.70
2022-09-07T08:41:41.436Z,50.83
2022-09-07T08:44:19.891Z,50.38
2022-09-07T08:47:00.456Z,49.66
2022-09-07T08:49:50.444Z,51.03
2022-09-07T08:52:25.100Z,49.16
2022-09-07T08:55:18.650Z,47.63
2022-09-07T08:57:52.184Z,46.57
2022-09-07T09:00:19.176Z,48.41
2022-09-07T09:02:46.397Z,48.67
2022-09-07T09:05:43.859Z,47.93
2022-09-07T09:08:36.726Z,46.64
2022-09-07T09:11:10.792Z,46.89
2022-09-07T09:14:05.113Z,46.62
2022-09-07T09:16:43.380Z,47.42
2022-09-07T09:19:37.472Z,45.58
2022-09-07T09:22:17.537Z,43.51
2022-09-07T09:24:49.764Z,44.78
2022-09-07T09:27:16.397Z,45.42
2022-09-07T09:29:43.090Z,46.60
2022-09-07T09:32:39.776Z,46.63
2022-09-07T09:35:25.312Z,46.34
2022-09-07T09:37:51.687Z,45.88
2022-09-07T09:40:23.219Z,43.82
2022-09-07T09:42:59.907Z,43.00
2022-09-07T09:46:12.294Z,44.04
2022-09-07T09:48:34.982Z,43.46
2022-09-07T09:53:55.935Z,44.84
2022-09-07T09:56:23.359Z,44.20
2022-09-07T09:59:05.759Z,43.79
2022-09-07T10:01:36.883Z,44.32
2022-09-07T10:04:25.343Z,44.24
2022-09-07T10:07:10.949Z,45.31
2022-09-07T10:09:40.364Z,45.06
2022-09-07T10:12:22.485Z,46.07
2022-09-07T10:14:48.901Z,45.30
2022-09-07T10:17:27.405Z,46.11
2022-09-07T10:19:59.135Z,45.37
2022-09-07T10:22:37.428Z,44.30
2022-09-07T10:25:25.120Z,43.86
2022-09-07T10:28:09.920Z,43.82
2022-09-07T10:30:45.225Z,43.48
2022-09-07T10:33:26.556Z,43.68
2022-09-07T10:36:37.165Z,41.92
2022-09-07T10:39:13.044Z,42.32
2022-09-07T10:42:08.640Z,41.17
2022-09-07T10:45:08.835Z,40.96
2022-09-07T10:48:00.123Z,39.95
2022-09-07T10:50:39.491Z,39.23
2022-09-07T10:53:42.275Z,37.23
2022-09-07T10:56:18.595Z,36.97
2022-09-07T10:59:02.193Z,36.82
2022-09-07T11:01:50.966Z,38.05
2022-09-07T11:04:36.240Z,38.17
2022-09-07T11:07:17.062Z,36.67
2022-09-07T11:09:48.347Z,38.64
2022-09-07T11:12:18.625Z,39.19
2022-09-07T11:15:10.767Z,41.11
2022-09-07T11:17:52.757Z,40.33
2022-09-07T11:20:34.010Z,41.62
2022-09-07T11:23:16.960Z,41.55
2022-09-07T11:26:01.919Z,41.50
2022-09-07T11:29:28.740Z,40.69
2022-09-07T11:31:49.319Z,39.93
2022-09-07T11:34:38.067Z,40.77
2022-09-07T11:37:19.532Z,40.37
2022-09-07T11:40:03.989Z,41.05
2022-09-07T11:42:55.708Z,41.14
2022-09-07T11:45:45.908Z,40.36
2022-09-07T11:48:30.285Z,40.12
2022-09-07T11:51:05.842Z,40.55
2022-09-07T11:53:42.425Z,41.11
2022-09-07T11:56:15.149Z,39.87
2022-09-07T11:59:09.492Z,39.45
2022-09-07T12:01:44.910Z,39.92
2022-09-07T12:04:35.184Z,40.90
2022-09-07T12:07:10.977Z,39.70
2022-09-07T12:09:59.475Z,37.95
2022-09-07T12:12:38.059Z,39.78
2022-09-07T12:15:36.248Z,40.33
2022-09-07T12:18:05.435Z,40.73
2022-09-07T12:20:41.085Z,41.02
2022-09-07T12:23:16.731Z,39.33
2022-09-07T12:25:44.957Z,40.84
2022-09-07T12:28:21.720Z,39.07
2022-09-07T12:30:55.640Z,39.44
2022-09-07T12:33:26.552Z,40.14
2022-09-07T12:35:54.956Z,40.37
2022-09-07T12:38:30.735Z,37.98
2022-09-07T12:41:02.847Z,39.18
2022-09-07T12:43:36.103Z,36.61
2022-09-07T12:46:03.338Z,35.34
2022-09-07T12:49:00.106Z,37.72
2022-09-07T12:54:43.847Z,36.83
2022-09-07T12:57:34.762Z,37.47
2022-09-07T13:00:42.300Z,37.75
2022-09-07T13:06:16.081Z,35.17
2022-09-07T13:08:47.739Z,37.19
2022-09-07T13:11:30.011Z,35.80
2022-09-07T13:14:05.159Z,35.43
2022-09-07T13:19:59.196Z,35.86
2022-09-07T13:22:31.291Z,36.20
2022-09-07T13:24:59.793Z,34.74
2022-09-07T13:27:52.418Z,38.28
2022-09-07T13:30:31.013Z,34.43
2022-09-07T13:33:25.124Z,33.73
2022-09-07T13:35:54.178Z,32.22
2022-09-07T13:38:21.585Z,32.54
2022-09-07T13:40:52.034Z,34.34
2022-09-07T13:43:21.248Z,35.49
2022-09-07T13:45:53.887Z,35.48
2022-09-07T13:48:41.984Z,36.13
2022-09-07T13:51:20.487Z,40.20
2022-09-07T13:53:56.085Z,35.23
2022-09-07T13:56:28.349Z,44.15
2022-09-07T13:58:55.098Z,40.79
2022-09-07T14:01:26.500Z,40.66
2022-09-07T14:04:06.528Z,37.84
2022-09-07T14:06:34.165Z,38.93
2022-09-07T14:09:14.729Z,37.45
2022-09-07T14:11:46.054Z,38.46
2022-09-07T14:14:27.212Z,45.13
2022-09-07T14:17:07.554Z,41.05
2022-09-07T14:19:41.783Z,37.23
2022-09-07T14:22:11.192Z,40.98
2022-09-07T14:24:40.815Z,43.84
2022-09-07T14:27:20.945Z,43.62
2022-09-07T14:29:48.132Z,39.72
2022-09-07T14:32:22.331Z,40.38
2022-09-07T14:34:50.559Z,39.92
2022-09-07T14:37:20.943Z,40.28
2022-09-07T14:39:49.985Z,39.79
2022-09-07T14:42:22.150Z,40.30
2022-09-07T14:44:50.196Z,40.83
2022-09-07T14:47:23.491Z,43.52
2022-09-07T14:49:52.609Z,44.01
2022-09-07T14:53:33.154Z,43.28
2022-09-07T14:55:39.823Z,45.61
2022-09-07T14:58:15.568Z,49.38
2022-09-07T15:00:47.121Z,48.19
2022-09-07T15:03:50.954Z,48.73
2022-09-07T15:09:36.955Z,41.96
2022-09-07T15:12:18.458Z,42.96
2022-09-07T15:14:45.544Z,41.75
2022-09-07T15:20:29.643Z,38.63
2022-09-07T15:22:56.137Z,39.64
2022-09-07T15:25:22.911Z,39.83
2022-09-07T15:27:50.340Z,40.56
2022-09-07T15:30:17.615Z,41.88
2022-09-07T15:32:44.184Z,42.58
2022-09-07T15:35:10.914Z,44.07
2022-09-07T15:40:26.170Z,45.12
2022-09-07T15:43:00.640Z,47.69
2022-09-07T15:45:27.491Z,51.27
2022-09-07T15:47:54.152Z,50.79
2022-09-07T15:50:23.138Z,53.09
2022-09-07T15:52:49.744Z,51.94
2022-09-07T15:55:17.524Z,51.01
2022-09-07T15:58:05.245Z,55.47
2022-09-07T16:00:30.861Z,60.02
2022-09-07T16:03:06.097Z,66.08
2022-09-07T16:05:33.845Z,67.21
2022-09-07T16:10:55.604Z,76.34
2022-09-07T16:13:24.010Z,74.87
2022-09-07T16:15:52.709Z,78.48
2022-09-07T16:18:19.293Z,82.74
2022-09-07T16:20:47.362Z,85.21
2022-09-07T16:23:16.442Z,85.45
2022-09-07T16:25:56.283Z,85.60
2022-09-07T16:28:22.970Z,88.07
2022-09-07T16:30:50.188Z,88.69
2022-09-07T16:33:16.634Z,91.06
2022-09-07T16:35:43.089Z,90.41
2022-09-07T16:40:56.181Z,87.81
2022-09-07T16:43:22.878Z,89.58
2022-09-07T16:46:05.153Z,90.05
2022-09-07T16:48:33.462Z,89.70
2022-09-07T16:51:02.657Z,91.50
2022-09-07T16:53:31.065Z,93.18
2022-09-07T16:56:20.039Z,95.20
2022-09-07T16:58:49.246Z,95.32
2022-09-07T17:01:19.838Z,96.94
2022-09-07T17:03:49.224Z,95.99
2022-09-07T17:06:16.998Z,88.95
2022-09-07T17:08:43.959Z,89.80
2022-09-07T17:11:13.324Z,90.91
2022-09-07T17:13:41.308Z,96.19
2022-09-07T17:16:13.081Z,98.57
2022-09-07T17:21:35.905Z,100.00
2022-09-07T17:24:04.764Z,100.00
2022-09-07T17:26:32.181Z,100.00
2022-09-07T17:29:00.976Z,100.00
2022-09-07T17:34:16.900Z,100.00
2022-09-07T17:36:43.327Z,100.00
2022-09-07T17:39:18.627Z,100.00
2022-09-07T17:41:52.461Z,100.00
2022-09-07T17:44:19.316Z,100.00
2022-09-07T17:46:45.719Z,100.00
2022-09-07T17:49:14.375Z,100.00
2022-09-07T17:51:40.882Z,100.00
2022-09-07T17:54:11.649Z,100.00
2022-09-07T17:56:39.050Z,100.00
2022-09-07T18:01:53.870Z,100.00
2022-09-07T18:04:20.964Z,100.00
2022-09-07T18:06:47.654Z,100.00
2022-09-07T18:09:14.402Z,100.00
2022-09-07T18:11:47.095Z,100.00
2022-09-07T18:14:15.225Z,100.00
2022-09-07T18:16:44.100Z,100.00
2022-09-07T18:19:12.241Z,100.00
2022-09-07T18:21:40.810Z,100.00
2022-09-07T18:24:13.812Z,100.00
2022-09-07T18:26:41.020Z,100.00
2022-09-07T18:29:25.874Z,100.00
2022-09-07T18:31:55.356Z,100.00
2022-09-07T18:34:22.291Z,100.00
2022-09-07T18:36:49.048Z,100.00
2022-09-07T18:39:15.639Z,100.00
2022-09-07T18:41:42.356Z,100.00
2022-09-07T18:46:55.913Z,100.00
2022-09-07T18:49:22.498Z,100.00
2022-09-07T18:54:35.681Z,100.00
2022-09-07T18:57:02.211Z,100.00
2022-09-07T18:59:29.836Z,100.00
2022-09-07T19:02:01.321Z,100.00
2022-09-07T19:07:17.818Z,100.00
2022-09-07T19:09:44.321Z,100.00
2022-09-07T19:12:10.866Z,100.00
2022-09-07T19:14:38.100Z,100.00
2022-09-07T19:17:04.852Z,100.00
2022-09-07T19:19:32.817Z,100.00
2022-09-07T19:22:01.552Z,100.00
2022-09-07T19:24:28.624Z,100.00
2022-09-07T19:27:00.075Z,100.00
2022-09-07T19:29:27.200Z,100.00
2022-09-07T19:32:11.635Z,100.00
2022-09-07T19:34:43.555Z,100.00
2022-09-07T19:37:12.623Z,100.00
2022-09-07T19:39:39.842Z,100.00
2022-09-07T19:42:07.237Z,100.00
2022-09-07T19:44:33.991Z,100.00
2022-09-07T19:47:00.842Z,100.00
2022-09-07T19:49:28.003Z,100.00
2022-09-07T19:51:54.833Z,100.00
2022-09-07T19:54:21.567Z,100.00
2022-09-07T19:56:48.345Z,100.00
2022-09-07T19:59:15.135Z,100.00
2022-09-07T20:01:45.984Z,100.00
2022-09-07T20:04:20.303Z,100.00
2022-09-07T20:06:49.829Z,100.00
2022-09-07T20:09:18.212Z,100.00
2022-09-07T20:11:46.935Z,100.00
2022-09-07T20:14:15.039Z,100.00
2022-09-07T20:16:41.976Z,100.00
2022-09-07T20:19:11.599Z,100.00
2022-09-07T20:21:38.340Z,100.00
2022-09-07T20:24:05.936Z,100.00
2022-09-07T20:26:32.692Z,100.00
2022-09-07T20:29:23.454Z,100.00
2022-09-07T20:31:46.235Z,100.00
2022-09-07T20:34:12.938Z,100.00
2022-09-07T20:36:40.071Z,100.00
2022-09-07T20:39:06.575Z,100.00
2022-09-07T20:41:34.226Z,100.00
2022-09-07T20:44:02.341Z,100.00
2022-09-07T20:46:30.283Z,100.00
2022-09-07T20:48:57.196Z,100.00
2022-09-07T20:51:23.742Z,100.00
2022-09-07T20:53:50.726Z,100.00
2022-09-07T20:56:18.450Z,100.00
2022-09-07T20:58:46.416Z,100.00
2022-09-07T21:01:15.275Z,100.00
2022-09-07T21:03:49.214Z,100.00
2022-09-07T21:06:17.356Z,100.00
2022-09-07T21:08:45.280Z,100.00
2022-09-07T21:11:19.874Z,100.00
2022-09-07T21:13:47.092Z,100.00
2022-09-07T21:16:16.895Z,100.00
2022-09-07T21:18:44.099Z,100.00
2022-09-07T21:21:20.163Z,100.00
2022-09-07T21:23:47.626Z,100.00
2022-09-07T21:26:14.004Z,100.00
2022-09-07T21:28:40.331Z,100.00
2022-09-07T21:31:08.560Z,100.00
2022-09-07T21:33:36.413Z,100.00
2022-09-07T21:36:07.672Z,100.00
2022-09-07T21:38:36.075Z,100.00
2022-09-07T21:41:13.883Z,100.00
2022-09-07T21:43:40.921Z,100.00
2022-09-07T21:46:12.152Z,100.00
2022-09-07T21:48:39.304Z,100.00
2022-09-07T21:51:06.271Z,100.00
2022-09-07T21:53:33.369Z,100.00
2022-09-07T21:56:02.867Z,100.00
2022-09-07T21:58:29.692Z,100.00
2022-09-07T22:00:56.971Z,100.00
2022-09-07T22:03:25.242Z,100.00
2022-09-07T22:05:52.267Z,100.00
2022-09-07T22:08:19.225Z,100.00
2022-09-07T22:10:46.387Z,100.00
2022-09-07T22:13:12.992Z,100.00
2022-09-07T22:15:40.807Z,100.00
2022-09-07T22:18:10.748Z,100.00
2022-09-07T22:20:37.159Z,100.00
2022-09-07T22:23:05.235Z,100.00
2022-09-07T22:25:33.117Z,100.00
2022-09-07T22:27:59.608Z,100.00
2022-09-07T22:30:25.935Z,100.00
2022-09-07T22:32:52.314Z,100.00
2022-09-07T22:35:19.411Z,100.00
2022-09-07T22:37:46.251Z,100.00
2022-09-07T22:40:14.680Z,100.00
2022-09-07T22:42:41.811Z,100.00
2022-09-07T22:45:08.958Z,100.00
2022-09-07T22:47:35.312Z,100.00
2022-09-07T22:50:01.685Z,100.00
2022-09-07T22:52:27.951Z,100.00
2022-09-07T22:54:54.352Z,100.00
2022-09-07T22:57:20.633Z,100.00
2022-09-07T22:59:47.009Z,100.00
2022-09-07T23:02:13.359Z,100.00
2022-09-07T23:04:39.774Z,100.00
2022-09-07T23:07:07.590Z,100.00
2022-09-07T23:09:33.960Z,100.00
2022-09-07T23:12:00.430Z,100.00
2022-09-07T23:14:26.744Z,100.00
2022-09-07T23:16:53.235Z,100.00
2022-09-07T23:19:20.316Z,100.00
2022-09-07T23:21:46.937Z,100.00
2022-09-07T23:24:15.984Z,100.00
2022-09-07T23:26:43.160Z,100.00
2022-09-07T23:29:11.950Z,100.00
2022-09-07T23:31:38.725Z,100.00
2022-09-07T23:34:05.540Z,100.00
2022-09-07T23:36:32.708Z,100.00
2022-09-07T23:38:59.912Z,100.00
2022-09-07T23:41:27.158Z,100.00
2022-09-07T23:43:54.793Z,100.00
2022-09-07T23:46:21.882Z,100.00
2022-09-07T23:48:49.076Z,100.00
2022-09-07T23:51:19.936Z,100.00
2022-09-07T23:53:49.552Z,100.00
2022-09-07T23:56:15.906Z,100.00
2022-09-07T23:58:42.676Z,100.00
